HomeShort term forecast

Short term forecast

Graphical weather forecast for the next 48 hours for Montreal:

Short term forecast

This weather forecast is automatically refreshed every 3 hours.

Hourly Experimental Forecast for the next 48 hours

Overall summary: Clear throughout the day.

 Date & Hour   Temp   Feel   Baro   Hum   Speed & Bearing   Wind Gust   Precip.%   Precip.   Visibility   Cloud cover   Conditions 
 12/08/2020 - 12:00  27.2°C  28.3°C  1016.5 hPa  59%  16.1 km/h   22.2 km/h  0%  --  16.1km  17%  Clear 
 12/08/2020 - 13:00  28.1°C  28.6°C  1016.6 hPa  51%  17.7 km/h   23.9 km/h  0%  --  16.1km  46%  Partly Cloudy 
 12/08/2020 - 14:00  29.1°C  29.1°C  1016.1 hPa  44%  18.6 km/h   24.7 km/h  0%  --  16.1km  27%  Clear 
 12/08/2020 - 15:00  29.7°C  29.7°C  1016.0 hPa  40%  18.8 km/h   25.2 km/h  0%  --  16.1km  11%  Clear 
 12/08/2020 - 16:00  30.0°C  30.0°C  1016.2 hPa  37%  18.6 km/h   25.7 km/h  0%  --  16.1km  5%  Clear 
 12/08/2020 - 17:00  29.7°C  29.7°C  1016.8 hPa  38%  17.6 km/h   25.8 km/h  1%  0.03 mm/h  16.1km  0%  Clear 
 12/08/2020 - 18:00  28.9°C  28.9°C  1016.9 hPa  42%  15.4 km/h   24.9 km/h  0%  --  16.1km  0%  Clear 
 12/08/2020 - 19:00  27.6°C  27.8°C  1017.2 hPa  48%  12.0 km/h   22.5 km/h  1%  0.04 mm/h  16.1km  0%  Clear 
 12/08/2020 - 20:00  26.2°C  26.4°C  1017.6 hPa  55%  9.3 km/h   19.6 km/h  0%  --  16.1km  0%  Clear 
 12/08/2020 - 21:00  24.9°C  25.1°C  1018.0 hPa  61%  8.3 km/h   17.9 km/h  1%  0.04 mm/h  16.1km  0%  Clear 
 12/08/2020 - 22:00  23.7°C  23.9°C  1018.4 hPa  68%  7.6 km/h   14.8 km/h  1%  0.01 mm/h  16.1km  0%  Clear 
 12/08/2020 - 23:00  22.7°C  22.9°C  1018.9 hPa  73%  6.9 km/h   10.8 km/h  1%  0.02 mm/h  16.1km  0%  Clear 
 13/08/2020 - 00:00  21.8°C  22.1°C  1019.0 hPa  79%  6.9 km/h   9.7 km/h  1%  0.01 mm/h  16.1km  0%  Clear 
 13/08/2020 - 01:00  21.0°C  21.3°C  1018.9 hPa  85%  6.7 km/h   9.6 km/h  0%  --  16.1km  0%  Clear 
 13/08/2020 - 02:00  19.9°C  20.4°C  1018.8 hPa  92%  7.4 km/h   11.0 km/h  0%  --  16.1km  0%  Clear 
 13/08/2020 - 03:00  19.1°C  19.5°C  1019.1 hPa  95%  7.3 km/h   10.8 km/h  0%  --  16.1km  0%  Clear 
 13/08/2020 - 04:00  18.2°C  18.7°C  1018.9 hPa  97%  7.2 km/h   10.7 km/h  0%  --  16.1km  1%  Clear 
 13/08/2020 - 05:00  17.9°C  18.3°C  1019.3 hPa  98%  6.9 km/h   10.2 km/h  0%  --  16.1km  2%  Clear 
 13/08/2020 - 06:00  18.1°C  18.4°C  1020.0 hPa  96%  6.3 km/h   9.1 km/h  0%  --  16.1km  2%  Clear 
 13/08/2020 - 07:00  18.9°C  19.2°C  1020.4 hPa  92%  5.4 km/h   7.8 km/h  0%  --  16.1km  2%  Clear 
 13/08/2020 - 08:00  20.2°C  20.5°C  1020.9 hPa  84%  4.6 km/h   6.8 km/h  1%  0.01 mm/h  16.1km  5%  Clear 
 13/08/2020 - 09:00  22.3°C  22.5°C  1021.0 hPa  74%  4.0 km/h   6.6 km/h  0%  --  16.1km  10%  Clear 
 13/08/2020 - 10:00  24.5°C  24.7°C  1021.2 hPa  64%  3.5 km/h   6.7 km/h  0%  --  16.1km  18%  Clear 
 13/08/2020 - 11:00  26.2°C  26.3°C  1021.2 hPa  56%  3.7 km/h   7.2 km/h  1%  0.01 mm/h  16.1km  24%  Clear 
 13/08/2020 - 12:00  27.3°C  27.7°C  1021.0 hPa  49%  5.2 km/h   8.0 km/h  1%  0.01 mm/h  16.1km  24%  Clear 
 13/08/2020 - 13:00  28.3°C  28.3°C  1020.7 hPa  44%  7.3 km/h   9.1 km/h  1%  0.01 mm/h  16.1km  23%  Clear 
 13/08/2020 - 14:00  29.0°C  29.0°C  1020.4 hPa  41%  8.9 km/h   9.9 km/h  1%  0.01 mm/h  16.1km  23%  Clear 
 13/08/2020 - 15:00  29.3°C  29.3°C  1019.9 hPa  40%  9.0 km/h   9.8 km/h  0%  --  16.1km  32%  Partly Cloudy 
 13/08/2020 - 16:00  29.0°C  29.0°C  1019.5 hPa  40%  8.4 km/h   9.4 km/h  0%  --  16.1km  45%  Partly Cloudy 
 13/08/2020 - 17:00  28.4°C  28.4°C  1019.3 hPa  42%  8.1 km/h   9.5 km/h  0%  --  16.1km  55%  Partly Cloudy 
 13/08/2020 - 18:00  27.4°C  27.7°C  1019.3 hPa  47%  8.3 km/h   10.7 km/h  0%  --  16.1km  60%  Mostly Cloudy 
 13/08/2020 - 19:00  26.4°C  26.5°C  1019.9 hPa  53%  8.6 km/h   12.5 km/h  1%  0.01 mm/h  16.1km  61%  Mostly Cloudy 
 13/08/2020 - 20:00  25.3°C  25.5°C  1020.3 hPa  59%  8.8 km/h   14.1 km/h  1%  0.01 mm/h  16.1km  60%  Mostly Cloudy 
 13/08/2020 - 21:00  24.6°C  24.8°C  1020.5 hPa  64%  8.7 km/h   14.9 km/h  1%  0.01 mm/h  16.1km  57%  Partly Cloudy 
 13/08/2020 - 22:00  23.7°C  23.9°C  1020.5 hPa  68%  8.5 km/h   15.4 km/h  0%  --  16.1km  51%  Partly Cloudy 
 13/08/2020 - 23:00  22.9°C  23.1°C  1020.8 hPa  72%  8.6 km/h   17.0 km/h  0%  --  16.1km  45%  Partly Cloudy 
 14/08/2020 - 00:00  22.2°C  22.4°C  1021.1 hPa  74%  9.3 km/h   20.9 km/h  0%  --  16.1km  43%  Partly Cloudy 
 14/08/2020 - 01:00  21.5°C  21.6°C  1021.5 hPa  75%  10.5 km/h   25.7 km/h  1%  0.01 mm/h  16.1km  42%  Partly Cloudy 
 14/08/2020 - 02:00  20.8°C  20.9°C  1021.5 hPa  76%  11.5 km/h   29.0 km/h  1%  0.02 mm/h  16.1km  41%  Partly Cloudy 
 14/08/2020 - 03:00  19.9°C  20.0°C  1021.7 hPa  78%  12.2 km/h   29.5 km/h  1%  0.01 mm/h  16.1km  39%  Partly Cloudy 
 14/08/2020 - 04:00  18.9°C  18.9°C  1021.3 hPa  78%  12.8 km/h   28.3 km/h  0%  --  16.1km  37%  Partly Cloudy 
 14/08/2020 - 05:00  18.2°C  18.2°C  1021.3 hPa  77%  13.2 km/h   27.3 km/h  0%  --  16.1km  36%  Partly Cloudy 
 14/08/2020 - 06:00  17.9°C  17.9°C  1021.2 hPa  77%  13.4 km/h   27.3 km/h  0%  --  16.1km  36%  Partly Cloudy 
 14/08/2020 - 07:00  17.9°C  17.9°C  1021.9 hPa  77%  13.4 km/h   27.3 km/h  0%  --  16.1km  37%  Partly Cloudy 
 14/08/2020 - 08:00  18.6°C  18.6°C  1022.3 hPa  74%  13.3 km/h   26.6 km/h  0%  --  16.1km  37%  Partly Cloudy 
 14/08/2020 - 09:00  20.0°C  20.0°C  1022.4 hPa  68%  13.1 km/h   24.3 km/h  0%  --  16.1km  33%  Partly Cloudy 
 14/08/2020 - 10:00  21.8°C  21.8°C  1022.5 hPa  60%  12.8 km/h   21.1 km/h  1%  0.01 mm/h  16.1km  28%  Clear 
 14/08/2020 - 11:00  23.2°C  23.2°C  1022.6 hPa  54%  12.7 km/h   18.5 km/h  1%  0.01 mm/h  16.1km  23%  Clear 

 

Past weather and reports

Past weatherFind in this section the past weather conditions, weather archive, graphics, reports and statistics.

Current conditions

Current weather condition for MontrealAll you need to know about the current weather conditions for Montreal. Weather data is updated every 10 minutes.

Weather forecast

Current Montreal weatherSince 2004, celinium.com website has provided accurate weather forecast for Montreal's island.